Time;durP1;ratioP1;P1;durP2;ratioP2;P2;SDS_P1;SDS_P2;PMS_P1;PMS_P2;Temp;Humidity;BMP_temperature;BMP_pressure;BME280_temperature;BME280_humidity;BME280_pressure;Samples;Min_cycle;Max_cycle;Signal;HPM_P1;HPM_P2
2021/09/23 00:00:46;;;;;;;85.72;49.08;;;11.40;97.50;;;;;;5023236;28;20104;-67
2021/09/23 00:03:14;;;;;;;87.03;52.92;;;11.40;97.70;;;;;;5022499;28;20033;-67
2021/09/23 00:05:41;;;;;;;78.38;46.67;;;11.50;97.60;;;;;;5019614;28;20067;-67
2021/09/23 00:08:08;;;;;;;87.25;47.38;;;11.40;97.50;;;;;;5025267;28;20033;-67
2021/09/23 00:10:36;;;;;;;79.93;46.90;;;11.40;97.50;;;;;;5021172;28;20055;-68
2021/09/23 00:13:03;;;;;;;81.28;46.22;;;11.30;97.50;;;;;;5023414;28;20026;-68
2021/09/23 00:15:30;;;;;;;82.68;48.05;;;11.40;97.60;;;;;;5022253;28;20036;-67
2021/09/23 00:18:00;;;;;;;80.72;46.75;;;11.30;97.50;;;;;;5033669;28;20055;-67
2021/09/23 00:20:29;;;;;;;84.03;48.13;;;11.30;97.50;;;;;;5040603;28;20256;-68
2021/09/23 00:22:55;;;;;;;82.82;45.63;;;11.30;97.60;;;;;;5023624;28;20037;-67
2021/09/23 00:25:21;;;;;;;79.05;45.30;;;11.30;97.60;;;;;;5022784;28;20049;-68
2021/09/23 00:27:47;;;;;;;83.70;45.60;;;11.30;97.50;;;;;;5032319;28;20064;-67
2021/09/23 00:30:13;;;;;;;78.63;46.40;;;11.30;97.50;;;;;;5028057;28;20045;-68
2021/09/23 00:32:39;;;;;;;79.57;45.30;;;11.20;97.50;;;;;;5024356;28;20030;-68
2021/09/23 00:35:06;;;;;;;83.60;44.30;;;11.30;97.50;;;;;;5022854;28;20025;-68
2021/09/23 00:37:32;;;;;;;80.70;48.20;;;11.30;97.40;;;;;;5024503;28;20032;-67
2021/09/23 00:39:57;;;;;;;82.30;46.63;;;11.30;97.50;;;;;;5024768;28;20108;-68
2021/09/23 00:42:23;;;;;;;79.50;44.95;;;11.30;97.40;;;;;;5021823;28;20013;-68
2021/09/23 00:44:56;;;;;;;78.35;44.97;;;11.30;97.30;;;;;;5021990;28;20516;-65
2021/09/23 00:47:22;;;;;;;81.05;46.85;;;11.30;97.30;;;;;;5023457;28;20033;-65
2021/09/23 00:49:48;;;;;;;74.20;42.67;;;11.30;97.30;;;;;;5026081;28;20435;-66
2021/09/23 00:52:14;;;;;;;73.90;42.97;;;11.30;97.30;;;;;;5023493;28;20063;-66
2021/09/23 00:54:40;;;;;;;67.22;43.20;;;11.20;97.10;;;;;;5023671;28;20025;-66
2021/09/23 00:57:05;;;;;;;77.90;44.30;;;11.30;97.20;;;;;;5020607;28;20064;-64
2021/09/23 00:59:31;;;;;;;78.30;43.58;;;11.30;97.20;;;;;;5022501;28;20116;-66
2021/09/23 01:01:56;;;;;;;83.93;44.17;;;11.20;97.20;;;;;;5013561;28;20091;-65
2021/09/23 01:04:22;;;;;;;70.93;42.67;;;11.20;97.20;;;;;;5025744;28;20156;-65
2021/09/23 01:06:51;;;;;;;76.00;43.55;;;11.20;97.10;;;;;;5032882;28;20040;-65
2021/09/23 01:09:17;;;;;;;73.90;45.22;;;11.30;97.40;;;;;;5023099;28;20124;-64
2021/09/23 01:11:43;;;;;;;75.20;43.58;;;11.20;97.20;;;;;;5025099;28;20026;-63
2021/09/23 01:14:11;;;;;;;79.68;44.97;;;11.30;97.30;;;;;;5022516;28;20121;-66
2021/09/23 01:16:37;;;;;;;85.15;45.20;;;11.30;97.20;;;;;;5026654;28;20392;-65
2021/09/23 01:19:03;;;;;;;80.93;43.17;;;11.20;97.10;;;;;;5022365;28;20022;-65
2021/09/23 01:21:29;;;;;;;79.03;43.20;;;11.20;97.10;;;;;;5020185;28;20025;-66
2021/09/23 01:23:54;;;;;;;80.28;43.67;;;11.30;97.10;;;;;;5022223;28;20035;-65
2021/09/23 01:26:26;;;;;;;74.07;42.63;;;11.40;96.90;;;;;;5025087;28;20107;-64
2021/09/23 01:28:53;;;;;;;69.20;41.40;;;11.40;96.70;;;;;;5023617;28;20041;-65
2021/09/23 01:31:20;;;;;;;75.38;43.00;;;11.30;96.60;;;;;;5022962;28;20025;-65
2021/09/23 01:33:45;;;;;;;68.10;39.83;;;11.30;96.50;;;;;;5019917;28;20104;-66
2021/09/23 01:36:11;;;;;;;66.60;39.10;;;11.30;96.30;;;;;;5032280;28;20108;-66
2021/09/23 01:38:37;;;;;;;69.47;40.10;;;11.30;96.20;;;;;;5023762;28;20104;-65
2021/09/23 01:41:02;;;;;;;67.10;37.58;;;11.30;96.20;;;;;;5023389;28;20024;-63
2021/09/23 01:43:28;;;;;;;64.07;38.28;;;11.30;96.10;;;;;;5022119;28;20049;-65
2021/09/23 01:45:54;;;;;;;65.85;37.83;;;11.20;96.20;;;;;;5020298;28;20071;-66
2021/09/23 01:48:19;;;;;;;60.65;36.40;;;11.10;96.10;;;;;;5026736;28;20071;-64
2021/09/23 01:50:45;;;;;;;66.93;38.25;;;11.10;96.30;;;;;;5035629;28;20033;-65
2021/09/23 01:53:10;;;;;;;65.40;38.15;;;11.10;96.30;;;;;;5025992;28;20061;-67
2021/09/23 01:55:36;;;;;;;59.65;36.58;;;11.00;96.30;;;;;;5024407;28;20029;-66
2021/09/23 01:58:02;;;;;;;68.97;38.53;;;11.00;96.40;;;;;;5020609;28;20029;-65
2021/09/23 02:00:28;;;;;;;64.53;38.17;;;10.90;96.40;;;;;;5025859;28;20148;-66
2021/09/23 02:02:54;;;;;;;70.05;38.28;;;10.90;96.60;;;;;;5022242;28;20037;-64
2021/09/23 02:05:20;;;;;;;66.03;38.65;;;11.00;96.70;;;;;;5030067;28;20037;-67
2021/09/23 02:07:46;;;;;;;65.35;39.53;;;11.00;96.50;;;;;;5022622;28;20120;-66
2021/09/23 02:10:12;;;;;;;66.50;40.10;;;11.00;96.50;;;;;;5024246;28;20451;-67
2021/09/23 02:12:37;;;;;;;59.55;37.45;;;11.00;96.30;;;;;;5021047;28;20037;-65
2021/09/23 02:15:04;;;;;;;67.13;38.22;;;10.90;96.20;;;;;;5024566;28;20087;-64
2021/09/23 02:17:29;;;;;;;69.68;38.20;;;10.90;96.30;;;;;;5023782;28;20060;-64
2021/09/23 02:19:56;;;;;;;61.72;38.92;;;10.90;96.30;;;;;;5025037;28;20061;-66
2021/09/23 02:22:22;;;;;;;65.88;38.83;;;10.90;96.40;;;;;;5024528;28;20168;-64
2021/09/23 02:24:48;;;;;;;68.78;39.67;;;10.80;96.30;;;;;;5024780;28;21870;-65
2021/09/23 02:27:13;;;;;;;63.92;37.58;;;10.80;96.50;;;;;;5020917;28;20061;-67
2021/09/23 02:29:39;;;;;;;67.65;40.13;;;10.80;96.60;;;;;;5023261;28;20053;-65
2021/09/23 02:32:06;;;;;;;59.92;37.90;;;10.60;96.40;;;;;;5022524;28;20034;-65
2021/09/23 02:34:32;;;;;;;66.55;39.38;;;10.70;96.50;;;;;;5024290;28;20025;-66
2021/09/23 02:36:57;;;;;;;70.63;39.92;;;10.60;96.60;;;;;;5028361;28;20124;-66
2021/09/23 02:39:23;;;;;;;67.10;38.90;;;10.60;96.70;;;;;;5021842;28;20740;-65
2021/09/23 02:41:49;;;;;;;77.05;39.95;;;10.60;96.60;;;;;;5028173;28;20036;-65
2021/09/23 02:44:14;;;;;;;68.93;37.70;;;10.60;96.60;;;;;;5019984;28;20025;-66
2021/09/23 02:46:40;;;;;;;71.68;39.42;;;10.60;96.60;;;;;;5023631;28;20543;-66
2021/09/23 02:49:06;;;;;;;64.78;39.75;;;10.50;96.50;;;;;;5019995;28;20455;-65
2021/09/23 02:51:31;;;;;;;69.93;38.65;;;10.50;96.70;;;;;;5024783;28;20536;-65
2021/09/23 02:53:57;;;;;;;66.30;38.05;;;10.40;96.70;;;;;;5023070;28;20614;-64
2021/09/23 02:56:23;;;;;;;69.00;39.80;;;10.40;96.90;;;;;;5025349;28;20262;-65
2021/09/23 02:58:50;;;;;;;78.28;42.08;;;10.50;96.90;;;;;;5013225;28;20484;-65
2021/09/23 03:01:17;;;;;;;75.18;41.47;;;10.50;96.90;;;;;;5026669;28;20037;-66
2021/09/23 03:03:43;;;;;;;74.93;42.58;;;10.40;96.80;;;;;;5020741;28;20040;-65
2021/09/23 03:06:09;;;;;;;73.78;41.35;;;10.40;96.80;;;;;;5028988;28;20021;-63
2021/09/23 03:08:35;;;;;;;74.40;41.58;;;10.40;96.80;;;;;;5020546;28;20492;-66
2021/09/23 03:11:00;;;;;;;72.75;41.38;;;10.30;96.80;;;;;;5021520;28;20045;-65
2021/09/23 03:13:26;;;;;;;79.45;44.17;;;10.30;96.90;;;;;;5025640;28;20498;-66
2021/09/23 03:15:52;;;;;;;78.80;42.28;;;10.30;96.90;;;;;;5034677;28;20042;-65
2021/09/23 03:18:17;;;;;;;75.85;43.97;;;10.30;96.90;;;;;;5032256;28;20056;-66
2021/09/23 03:20:45;;;;;;;78.22;43.70;;;10.30;96.90;;;;;;5023341;28;20072;-64
2021/09/23 03:23:12;;;;;;;68.90;41.60;;;10.30;96.80;;;;;;5025928;28;20026;-66
2021/09/23 03:25:38;;;;;;;73.53;42.95;;;10.30;96.80;;;;;;5026280;28;20041;-65
2021/09/23 03:28:03;;;;;;;73.95;42.50;;;10.30;96.70;;;;;;5021056;28;20493;-65
2021/09/23 03:30:29;;;;;;;75.18;41.70;;;10.40;96.70;;;;;;5024024;28;20079;-66
2021/09/23 03:32:55;;;;;;;75.00;41.65;;;10.40;96.40;;;;;;5029226;28;20056;-66
2021/09/23 03:35:21;;;;;;;69.75;42.15;;;10.40;96.30;;;;;;5045505;28;20499;-66
2021/09/23 03:37:48;;;;;;;72.47;41.03;;;10.50;96.10;;;;;;5023686;28;20452;-63
2021/09/23 03:40:14;;;;;;;65.68;40.22;;;10.40;96.00;;;;;;5032871;28;20120;-65
2021/09/23 03:42:39;;;;;;;67.13;40.50;;;10.40;95.90;;;;;;5033161;28;20116;-65
2021/09/23 03:45:06;;;;;;;64.75;39.33;;;10.30;95.90;;;;;;5026369;28;20324;-63
2021/09/23 03:47:32;;;;;;;72.70;39.55;;;10.40;96.00;;;;;;5021153;28;20029;-65
2021/09/23 03:49:58;;;;;;;67.65;41.40;;;10.40;95.80;;;;;;5036717;28;20063;-66
2021/09/23 03:52:23;;;;;;;68.65;40.05;;;10.50;95.80;;;;;;5026791;28;20033;-66
2021/09/23 03:54:49;;;;;;;68.30;38.83;;;10.60;95.40;;;;;;5028092;28;20033;-66
2021/09/23 03:57:14;;;;;;;65.32;38.58;;;10.60;95.20;;;;;;5024371;28;20091;-65
2021/09/23 03:59:40;;;;;;;60.20;39.67;;;10.70;95.00;;;;;;5021938;28;20056;-64
2021/09/23 04:02:06;;;;;;;64.15;38.03;;;10.80;94.70;;;;;;5022685;28;20480;-66
2021/09/23 04:04:33;;;;;;;58.38;36.25;;;10.80;94.60;;;;;;5039835;28;20029;-65
2021/09/23 04:06:58;;;;;;;54.38;34.85;;;11.00;94.30;;;;;;5025679;28;20029;-67
2021/09/23 04:09:24;;;;;;;58.45;35.67;;;11.00;94.30;;;;;;5029491;28;20419;-67
2021/09/23 04:11:49;;;;;;;54.55;34.22;;;11.00;94.00;;;;;;5023729;28;20040;-67
2021/09/23 04:14:15;;;;;;;59.08;35.58;;;11.00;93.90;;;;;;5033548;28;20276;-66
2021/09/23 04:16:41;;;;;;;51.55;32.92;;;11.10;93.60;;;;;;5023381;28;20029;-66
2021/09/23 04:19:06;;;;;;;50.63;32.10;;;11.10;93.60;;;;;;5024578;28;20043;-67
2021/09/23 04:21:33;;;;;;;57.78;34.83;;;11.10;93.50;;;;;;5022406;28;20133;-63
2021/09/23 04:23:58;;;;;;;50.55;33.08;;;11.10;93.30;;;;;;5026981;28;20215;-64
2021/09/23 04:26:24;;;;;;;51.03;31.42;;;11.20;93.30;;;;;;5027691;28;20025;-63
2021/09/23 04:28:50;;;;;;;52.47;31.67;;;11.10;93.10;;;;;;5017941;28;20147;-62
2021/09/23 04:31:16;;;;;;;48.47;31.08;;;11.20;93.00;;;;;;5021996;28;20021;-62
2021/09/23 04:33:42;;;;;;;52.00;31.83;;;11.20;93.00;;;;;;5022732;28;20025;-63
2021/09/23 04:36:07;;;;;;;46.75;30.30;;;11.20;93.00;;;;;;5021975;28;20029;-62
2021/09/23 04:38:33;;;;;;;56.00;32.22;;;11.20;92.80;;;;;;5025779;28;20511;-63
2021/09/23 04:40:59;;;;;;;47.85;30.30;;;11.30;92.60;;;;;;5024124;28;20021;-63
2021/09/23 04:43:24;;;;;;;48.80;30.75;;;11.30;92.70;;;;;;5020330;28;20027;-62
2021/09/23 04:45:50;;;;;;;46.75;30.15;;;11.30;92.70;;;;;;5024676;28;20049;-64
2021/09/23 04:48:15;;;;;;;51.28;29.98;;;11.30;92.60;;;;;;5023030;28;20041;-64
2021/09/23 04:50:41;;;;;;;46.38;28.67;;;11.30;92.50;;;;;;5025139;28;20053;-63
2021/09/23 04:53:07;;;;;;;43.90;29.92;;;11.30;92.70;;;;;;5022779;28;20040;-62
2021/09/23 04:55:33;;;;;;;43.03;28.90;;;11.30;92.40;;;;;;5023518;28;20047;-63
2021/09/23 04:58:01;;;;;;;46.90;28.67;;;11.30;92.30;;;;;;5026770;28;20021;-63
2021/09/23 05:00:27;;;;;;;50.53;27.92;;;11.30;92.20;;;;;;5017127;28;20423;-64
2021/09/23 05:02:53;;;;;;;45.78;28.90;;;11.30;92.00;;;;;;5018973;28;20029;-65
2021/09/23 05:05:18;;;;;;;45.40;30.00;;;11.30;92.00;;;;;;5025374;28;20032;-66
2021/09/23 05:07:44;;;;;;;46.75;30.98;;;11.30;92.10;;;;;;5025252;28;20064;-65
2021/09/23 05:10:10;;;;;;;43.03;29.05;;;11.30;91.90;;;;;;5025049;28;20060;-64
2021/09/23 05:12:35;;;;;;;45.03;28.63;;;11.30;91.60;;;;;;5020974;28;20132;-65
2021/09/23 05:15:01;;;;;;;46.72;28.02;;;11.30;91.60;;;;;;5024644;28;20475;-65
2021/09/23 05:17:26;;;;;;;45.80;29.50;;;11.30;91.60;;;;;;5024850;28;20113;-64
2021/09/23 05:19:52;;;;;;;45.13;29.70;;;11.30;91.50;;;;;;5026623;28;20021;-66
2021/09/23 05:22:22;;;;;;;44.63;30.35;;;11.30;91.70;;;;;;5018192;28;20025;-66
2021/09/23 05:24:50;;;;;;;45.92;27.73;;;11.20;91.70;;;;;;5021365;28;20065;-66
2021/09/23 05:27:17;;;;;;;44.97;28.60;;;11.20;91.60;;;;;;5022157;28;20034;-64
2021/09/23 05:29:43;;;;;;;43.47;28.25;;;11.10;91.70;;;;;;5032147;28;20064;-64
2021/09/23 05:32:09;;;;;;;47.40;29.73;;;11.20;91.60;;;;;;5027058;28;20035;-66
2021/09/23 05:34:35;;;;;;;43.75;29.00;;;11.20;91.70;;;;;;5042326;28;20124;-65
2021/09/23 05:37:00;;;;;;;43.97;28.58;;;11.20;91.60;;;;;;5022966;28;20362;-65
2021/09/23 05:39:26;;;;;;;42.00;27.38;;;11.20;91.60;;;;;;5024637;28;20492;-63
2021/09/23 05:41:52;;;;;;;45.95;27.70;;;11.20;91.70;;;;;;5030019;28;20458;-65
2021/09/23 05:44:23;;;;;;;44.40;28.67;;;11.30;91.40;;;;;;5027324;28;20434;-65
2021/09/23 05:46:53;;;;;;;42.47;27.13;;;11.20;91.60;;;;;;5023838;28;20045;-65
2021/09/23 05:49:20;;;;;;;45.92;28.02;;;11.30;91.60;;;;;;5023588;28;20037;-65
2021/09/23 05:51:47;;;;;;;45.15;26.75;;;11.30;91.20;;;;;;5024699;28;20132;-65
2021/09/23 05:54:12;;;;;;;44.72;27.38;;;11.40;90.90;;;;;;5020752;28;20025;-66
2021/09/23 05:56:38;;;;;;;44.25;27.88;;;11.40;91.00;;;;;;5020748;28;20029;-66
2021/09/23 05:59:05;;;;;;;39.88;26.52;;;11.40;91.20;;;;;;5036339;28;20063;-66
2021/09/23 06:01:30;;;;;;;42.47;26.23;;;11.40;91.00;;;;;;5028205;28;20052;-65
2021/09/23 06:03:56;;;;;;;42.42;27.50;;;11.40;91.00;;;;;;5026216;28;20029;-65
2021/09/23 06:06:22;;;;;;;42.97;26.38;;;11.50;90.80;;;;;;5031982;28;20519;-66
2021/09/23 06:08:47;;;;;;;41.92;27.70;;;11.50;90.80;;;;;;5021325;28;20017;-65
2021/09/23 06:11:13;;;;;;;43.40;26.70;;;11.60;90.70;;;;;;5035446;28;20586;-66
2021/09/23 06:13:39;;;;;;;43.97;26.20;;;11.80;90.50;;;;;;5023199;28;20032;-65
2021/09/23 06:16:05;;;;;;;39.80;25.75;;;11.90;90.10;;;;;;5035522;28;20029;-66
2021/09/23 06:18:30;;;;;;;41.45;26.35;;;12.00;89.90;;;;;;5022367;28;20030;-66
2021/09/23 06:20:56;;;;;;;38.75;25.02;;;12.00;89.60;;;;;;5037812;28;20034;-66
2021/09/23 06:23:21;;;;;;;38.30;25.15;;;12.10;89.50;;;;;;5022486;28;20022;-66
2021/09/23 06:25:47;;;;;;;40.28;24.83;;;12.10;89.20;;;;;;5023824;28;20033;-64
2021/09/23 06:28:13;;;;;;;44.30;25.75;;;12.10;89.20;;;;;;5023155;28;20029;-66
2021/09/23 06:30:39;;;;;;;38.85;25.05;;;12.20;89.40;;;;;;5025520;28;20488;-65
2021/09/23 06:33:04;;;;;;;34.45;23.50;;;12.20;89.00;;;;;;5029364;28;20069;-66
2021/09/23 06:35:31;;;;;;;38.88;24.45;;;12.20;89.20;;;;;;5040027;28;20447;-65
2021/09/23 06:37:56;;;;;;;34.33;24.13;;;12.20;89.10;;;;;;5033671;28;20356;-66
2021/09/23 06:40:22;;;;;;;36.70;23.45;;;12.30;89.20;;;;;;5034930;28;20388;-63
2021/09/23 06:42:48;;;;;;;36.00;22.95;;;12.30;89.00;;;;;;5024530;28;20032;-66
2021/09/23 06:45:14;;;;;;;35.50;22.95;;;12.30;89.20;;;;;;5023701;28;20061;-65
2021/09/23 06:47:40;;;;;;;36.92;22.92;;;12.30;89.20;;;;;;5025817;28;20033;-66
2021/09/23 06:50:07;;;;;;;36.47;22.67;;;12.40;89.50;;;;;;5039742;28;20075;-64
2021/09/23 06:52:33;;;;;;;34.33;22.65;;;12.50;89.40;;;;;;5037127;28;20029;-65
2021/09/23 06:54:59;;;;;;;33.15;23.25;;;12.50;89.30;;;;;;5036371;28;20044;-65
2021/09/23 06:57:25;;;;;;;38.78;23.02;;;12.60;89.20;;;;;;5024618;28;20021;-65
2021/09/23 06:59:50;;;;;;;41.55;23.42;;;12.60;89.60;;;;;;5028461;28;20182;-66
2021/09/23 07:02:16;;;;;;;31.70;22.02;;;12.60;89.10;;;;;;5025245;28;20075;-65
2021/09/23 07:04:42;;;;;;;36.72;23.40;;;12.70;89.10;;;;;;5028339;28;20350;-65
2021/09/23 07:07:07;;;;;;;33.13;21.92;;;12.70;89.40;;;;;;5032955;28;20651;-66
2021/09/23 07:09:33;;;;;;;36.00;23.63;;;12.80;89.30;;;;;;5033869;28;20411;-65
2021/09/23 07:12:00;;;;;;;39.90;24.10;;;12.90;89.50;;;;;;5045736;28;20283;-65
2021/09/23 07:14:26;;;;;;;32.72;21.45;;;13.00;89.40;;;;;;5027027;28;20500;-64
2021/09/23 07:16:52;;;;;;;33.92;20.70;;;13.00;89.20;;;;;;5024268;28;20053;-64
2021/09/23 07:19:17;;;;;;;33.28;22.85;;;13.00;89.20;;;;;;5028497;28;20056;-65
2021/09/23 07:21:43;;;;;;;33.97;21.25;;;13.00;89.40;;;;;;5029501;28;20029;-64
2021/09/23 07:24:08;;;;;;;32.42;21.67;;;13.10;89.40;;;;;;5021110;28;20026;-66
2021/09/23 07:26:34;;;;;;;34.38;21.80;;;13.10;89.50;;;;;;5033197;28;20104;-65
2021/09/23 07:29:00;;;;;;;35.17;22.15;;;13.10;89.40;;;;;;5026090;28;20503;-66
2021/09/23 07:31:26;;;;;;;34.72;22.55;;;13.10;89.30;;;;;;5041750;28;20029;-64
2021/09/23 07:33:52;;;;;;;34.05;23.42;;;13.20;89.20;;;;;;5036958;28;20574;-63
2021/09/23 07:36:18;;;;;;;35.78;22.45;;;13.30;89.20;;;;;;5033801;28;20064;-66
2021/09/23 07:38:44;;;;;;;34.22;22.60;;;13.40;89.30;;;;;;5026481;28;20040;-65
2021/09/23 07:41:10;;;;;;;30.42;20.70;;;13.50;89.00;;;;;;5023755;28;20025;-66
2021/09/23 07:43:35;;;;;;;30.95;20.92;;;13.50;89.10;;;;;;5020543;28;20484;-66
2021/09/23 07:46:01;;;;;;;33.50;22.02;;;13.50;88.80;;;;;;5028169;28;20455;-64
2021/09/23 07:48:28;;;;;;;30.88;21.70;;;13.50;89.00;;;;;;5024479;28;20025;-65
2021/09/23 07:50:54;;;;;;;32.45;21.27;;;13.50;89.00;;;;;;5022904;28;20033;-65
2021/09/23 07:53:19;;;;;;;34.10;21.35;;;13.50;89.20;;;;;;5018156;28;20044;-64
2021/09/23 07:55:46;;;;;;;34.45;21.98;;;13.60;89.00;;;;;;5026082;28;20088;-64
2021/09/23 07:58:12;;;;;;;34.33;22.00;;;13.70;89.00;;;;;;5026471;28;20036;-64
2021/09/23 08:00:38;;;;;;;32.13;22.10;;;13.70;88.80;;;;;;5032090;28;20029;-64
2021/09/23 08:03:04;;;;;;;31.42;20.88;;;13.80;88.50;;;;;;5026112;28;20264;-64
2021/09/23 08:05:30;;;;;;;30.15;20.45;;;13.90;88.00;;;;;;5025909;28;20028;-66
2021/09/23 08:07:57;;;;;;;33.28;20.40;;;14.00;88.30;;;;;;5036801;28;20029;-65
2021/09/23 08:10:23;;;;;;;33.75;20.67;;;14.00;88.10;;;;;;5030397;28;20030;-63
2021/09/23 08:12:49;;;;;;;29.40;20.17;;;14.00;87.90;;;;;;5025623;28;20684;-65
2021/09/23 08:15:15;;;;;;;31.80;20.30;;;14.00;88.30;;;;;;5025600;28;20030;-66
2021/09/23 08:17:41;;;;;;;34.55;21.05;;;14.10;88.10;;;;;;5025215;28;20116;-65
2021/09/23 08:20:07;;;;;;;29.10;19.70;;;14.10;88.10;;;;;;5035344;28;20060;-65
2021/09/23 08:22:33;;;;;;;28.83;19.90;;;14.20;87.70;;;;;;5026177;28;20028;-65
2021/09/23 08:24:58;;;;;;;32.20;19.90;;;14.40;87.60;;;;;;5025542;28;20037;-65
2021/09/23 08:27:24;;;;;;;32.25;19.13;;;14.60;87.20;;;;;;5025878;28;20366;-65
2021/09/23 08:29:50;;;;;;;32.60;19.70;;;14.80;86.70;;;;;;5040410;28;20029;-69
2021/09/23 08:32:19;;;;;;;35.67;19.98;;;14.90;86.20;;;;;;5026828;28;20502;-65
2021/09/23 08:34:48;;;;;;;32.17;20.17;;;14.90;85.80;;;;;;5026105;28;20033;-65
2021/09/23 08:37:15;;;;;;;29.85;18.70;;;15.10;85.80;;;;;;5016494;28;20029;-63
2021/09/23 08:39:40;;;;;;;26.58;18.23;;;15.20;85.30;;;;;;5019183;28;20029;-64
2021/09/23 08:42:06;;;;;;;27.90;18.55;;;15.20;85.10;;;;;;5035454;28;20029;-65
2021/09/23 08:44:32;;;;;;;26.92;17.40;;;15.30;85.40;;;;;;5023131;28;20021;-64
2021/09/23 08:46:58;;;;;;;25.98;17.92;;;15.30;85.50;;;;;;5031093;28;20043;-65
2021/09/23 08:49:23;;;;;;;27.65;17.98;;;15.40;85.10;;;;;;5020418;28;20033;-65
2021/09/23 08:51:49;;;;;;;27.75;17.15;;;15.40;85.30;;;;;;5026373;28;20060;-65
2021/09/23 08:54:17;;;;;;;34.28;17.85;;;15.50;85.00;;;;;;5021980;28;20060;-64
2021/09/23 08:56:44;;;;;;;29.17;17.92;;;15.50;84.90;;;;;;5018940;28;20049;-66
2021/09/23 08:59:11;;;;;;;30.00;17.83;;;15.50;85.00;;;;;;5028778;28;20314;-65
2021/09/23 09:01:46;;;;;;;26.60;16.70;;;15.50;85.20;;;;;;5028125;28;20027;-65
2021/09/23 09:04:12;;;;;;;23.27;16.80;;;15.60;85.10;;;;;;5024588;28;20079;-66
2021/09/23 09:06:51;;;;;;;28.30;17.98;;;15.60;85.20;;;;;;5025988;28;20022;-63
2021/09/23 09:09:18;;;;;;;29.77;17.92;;;15.50;85.50;;;;;;5024856;28;20029;-65
2021/09/23 09:11:46;;;;;;;25.35;16.52;;;15.40;85.30;;;;;;5024809;28;20037;-65
2021/09/23 09:14:22;;;;;;;28.92;18.27;;;15.40;85.70;;;;;;5021738;28;20030;-63
2021/09/23 09:16:54;;;;;;;26.77;16.70;;;15.40;86.20;;;;;;5019052;28;20041;-63
2021/09/23 09:19:20;;;;;;;25.50;17.98;;;15.40;86.00;;;;;;5024581;28;20022;-64
2021/09/23 09:21:47;;;;;;;31.50;17.05;;;15.40;86.30;;;;;;5020737;28;20026;-65
2021/09/23 09:24:17;;;;;;;25.48;17.13;;;15.40;86.50;;;;;;5020790;28;20075;-64
2021/09/23 09:26:43;;;;;;;27.75;17.80;;;15.40;87.10;;;;;;5021299;28;20059;-65
2021/09/23 09:29:11;;;;;;;28.42;18.20;;;15.40;86.60;;;;;;5030017;28;20020;-65
2021/09/23 09:31:45;;;;;;;29.30;17.92;;;15.30;87.00;;;;;;5023005;28;20057;-64
2021/09/23 09:34:11;;;;;;;27.65;18.05;;;15.40;87.20;;;;;;5025559;28;20444;-65
2021/09/23 09:36:48;;;;;;;29.17;18.30;;;15.30;87.30;;;;;;5026998;28;20041;-63
2021/09/23 09:39:18;;;;;;;28.63;18.85;;;15.30;87.30;;;;;;5026900;28;20033;-65
2021/09/23 09:41:46;;;;;;;25.55;18.27;;;15.30;87.30;;;;;;5018142;28;20034;-65
2021/09/23 09:44:13;;;;;;;27.95;19.50;;;15.30;87.20;;;;;;5015786;28;20033;-65
2021/09/23 09:46:50;;;;;;;30.17;19.52;;;15.40;87.50;;;;;;5022952;28;20113;-64
2021/09/23 09:49:17;;;;;;;28.55;18.38;;;15.40;87.30;;;;;;5024721;28;20029;-65
2021/09/23 09:51:49;;;;;;;25.48;17.63;;;15.40;87.30;;;;;;5023866;28;20125;-65
2021/09/23 09:54:16;;;;;;;24.92;18.55;;;15.40;86.90;;;;;;5014775;28;20404;-64
2021/09/23 09:56:45;;;;;;;30.98;18.80;;;15.40;86.80;;;;;;5015552;28;20040;-65
2021/09/23 09:59:18;;;;;;;29.17;18.30;;;15.50;86.80;;;;;;5026523;28;20030;-64
2021/09/23 10:01:49;;;;;;;27.05;17.23;;;15.50;86.70;;;;;;5024318;28;20029;-64
2021/09/23 10:04:15;;;;;;;;;;;15.60;86.50;;;;;;5028468;28;20025;-65
2021/09/23 10:06:42;;;;;;;25.30;17.25;;;15.60;86.30;;;;;;5031270;28;19911;-66
2021/09/23 10:09:09;;;;;;;23.73;15.25;;;15.70;86.30;;;;;;5034402;28;20126;-65
2021/09/23 10:11:38;;;;;;;23.92;14.13;;;15.80;85.30;;;;;;5031128;28;20511;-65
2021/09/23 10:14:04;;;;;;;24.00;14.10;;;15.90;84.60;;;;;;5023552;28;20041;-63
2021/09/23 10:16:31;;;;;;;21.85;13.30;;;16.10;84.10;;;;;;5020616;28;20046;-64
2021/09/23 10:18:58;;;;;;;21.83;12.25;;;16.30;83.60;;;;;;5014518;28;20032;-65
2021/09/23 10:21:27;;;;;;;23.67;12.55;;;16.50;83.00;;;;;;5026538;28;20396;-65
2021/09/23 10:23:54;;;;;;;18.55;12.27;;;16.40;82.50;;;;;;5037776;28;20030;-65
2021/09/23 10:26:25;;;;;;;18.80;11.52;;;16.40;82.40;;;;;;5026340;28;20021;-65
2021/09/23 10:28:52;;;;;;;18.05;11.70;;;16.60;82.50;;;;;;5020718;28;20366;-65
2021/09/23 10:31:20;;;;;;;20.27;11.02;;;16.50;81.80;;;;;;5023556;28;20048;-65
2021/09/23 10:33:47;;;;;;;21.33;11.63;;;16.50;81.70;;;;;;5025957;28;20057;-64
2021/09/23 10:36:15;;;;;;;17.23;10.70;;;16.50;81.90;;;;;;5022543;28;20764;-65
2021/09/23 10:38:42;;;;;;;16.35;10.40;;;16.50;81.40;;;;;;5024962;28;20033;-65
2021/09/23 10:41:11;;;;;;;19.83;10.65;;;16.50;81.10;;;;;;5023892;28;20315;-65
2021/09/23 10:43:38;;;;;;;16.67;9.98;;;16.60;81.50;;;;;;5023099;28;20488;-65
2021/09/23 10:46:04;;;;;;;16.95;10.55;;;16.60;81.50;;;;;;5027460;28;20041;-63
2021/09/23 10:48:34;;;;;;;15.23;10.32;;;16.60;81.80;;;;;;5031954;28;20031;-65
2021/09/23 10:51:00;;;;;;;16.93;10.13;;;16.50;81.40;;;;;;5027862;28;20040;-65
2021/09/23 10:53:27;;;;;;;16.60;10.75;;;16.60;81.60;;;;;;5025692;28;20475;-65
2021/09/23 10:55:52;;;;;;;15.30;10.05;;;16.60;81.60;;;;;;5028075;28;20029;-65
2021/09/23 10:58:20;;;;;;;17.73;9.40;;;16.50;81.30;;;;;;5024294;28;20024;-65
2021/09/23 11:00:46;;;;;;;16.42;9.13;;;16.60;81.90;;;;;;5028487;28;20369;-64
2021/09/23 11:03:12;;;;;;;20.80;10.00;;;16.60;81.00;;;;;;5026180;28;20083;-63
2021/09/23 11:05:41;;;;;;;19.33;10.30;;;16.50;81.20;;;;;;5040903;28;20040;-65
2021/09/23 11:08:12;;;;;;;14.90;9.50;;;16.50;81.50;;;;;;5029622;28;20047;-65
2021/09/23 11:10:39;;;;;;;;;;;16.60;81.70;;;;;;5046888;28;20438;-65
2021/09/23 11:13:06;;;;;;;14.45;9.10;;;16.60;81.10;;;;;;5029632;28;20387;-65
2021/09/23 11:15:32;;;;;;;14.57;9.32;;;16.60;81.50;;;;;;5035244;28;20037;-65
2021/09/23 11:18:00;;;;;;;16.25;9.73;;;16.60;81.40;;;;;;5026881;28;20117;-66
2021/09/23 11:20:31;;;;;;;16.10;9.45;;;16.60;81.20;;;;;;5031624;28;20022;-65
2021/09/23 11:23:02;;;;;;;14.23;8.93;;;16.60;81.70;;;;;;5023011;28;20119;-64
2021/09/23 11:25:31;;;;;;;16.30;9.52;;;16.70;81.70;;;;;;5040837;28;20392;-65
2021/09/23 11:27:58;;;;;;;15.48;8.80;;;16.70;82.10;;;;;;5032296;28;20095;-65
2021/09/23 11:30:28;;;;;;;13.98;8.23;;;16.50;81.60;;;;;;5034169;28;20079;-65
2021/09/23 11:32:59;;;;;;;14.93;8.35;;;16.60;81.50;;;;;;5032882;28;20044;-64
2021/09/23 11:35:31;;;;;;;11.35;7.18;;;16.50;81.50;;;;;;5032907;28;20215;-64
2021/09/23 11:37:58;;;;;;;12.75;7.13;;;16.50;81.70;;;;;;5032021;28;20037;-65
2021/09/23 11:40:30;;;;;;;12.30;7.45;;;16.50;81.60;;;;;;5027948;28;20209;-65
2021/09/23 11:42:57;;;;;;;10.77;7.32;;;16.50;81.80;;;;;;5025502;28;20270;-64
2021/09/23 11:45:25;;;;;;;15.52;7.47;;;16.50;82.20;;;;;;5027932;28;20117;-65
2021/09/23 11:47:52;;;;;;;13.05;8.27;;;16.50;82.50;;;;;;5032889;28;20060;-64
2021/09/23 11:50:41;;;;;;;14.80;7.70;;;16.40;82.20;;;;;;5028712;28;20018;-65
2021/09/23 11:53:18;;;;;;;13.50;7.10;;;16.50;82.40;;;;;;5020999;28;20132;-64
2021/09/23 11:56:01;;;;;;;12.63;7.00;;;16.50;82.60;;;;;;5017954;28;20192;-65
2021/09/23 11:58:29;;;;;;;13.75;6.90;;;16.50;82.70;;;;;;5020139;28;20048;-64
2021/09/23 12:00:55;;;;;;;10.98;7.10;;;16.40;82.30;;;;;;5028176;28;20104;-65
2021/09/23 12:03:22;;;;;;;11.07;7.10;;;16.50;82.80;;;;;;5025503;28;20025;-65
2021/09/23 12:05:49;;;;;;;19.10;7.45;;;16.50;83.00;;;;;;5027146;28;20039;-64
2021/09/23 12:08:20;;;;;;;12.13;7.60;;;16.40;83.00;;;;;;5024990;28;20075;-65
2021/09/23 12:10:48;;;;;;;12.43;7.18;;;16.50;83.10;;;;;;5035407;28;20045;-62
2021/09/23 12:13:21;;;;;;;13.57;7.00;;;16.50;82.80;;;;;;5025659;28;20147;-64
2021/09/23 12:15:52;;;;;;;13.93;7.55;;;16.50;83.10;;;;;;5023130;28;20412;-63
2021/09/23 12:18:18;;;;;;;;;;;16.50;83.50;;;;;;5024449;28;20029;-63
2021/09/23 12:20:47;;;;;;;11.52;6.85;;;16.60;83.30;;;;;;5040122;28;20322;-65
2021/09/23 12:23:32;;;;;;;10.93;7.00;;;16.60;83.40;;;;;;5029580;28;20029;-65
2021/09/23 12:26:35;;;;;;;15.50;6.30;;;16.60;83.10;;;;;;5030173;28;20034;-65